sensor_id;sensor_type;location;lat;lon;timestamp;temperature;humidity
12720;DHT22;6424;48.520;11.228;2023-03-04T00:00:04;-0.40;99.90
12720;DHT22;6424;48.520;11.228;2023-03-04T00:02:30;-0.40;99.90
12720;DHT22;6424;48.520;11.228;2023-03-04T00:05:11;-0.40;99.90
12720;DHT22;6424;48.520;11.228;2023-03-04T00:07:52;-0.40;99.90
12720;DHT22;6424;48.520;11.228;2023-03-04T00:10:33;-0.40;99.90
12720;DHT22;6424;48.520;11.228;2023-03-04T00:13:13;-0.40;99.90
12720;DHT22;6424;48.520;11.228;2023-03-04T00:15:54;-0.40;99.90
12720;DHT22;6424;48.520;11.228;2023-03-04T00:18:35;-0.40;99.90
12720;DHT22;6424;48.520;11.228;2023-03-04T00:21:16;-0.40;99.90
12720;DHT22;6424;48.520;11.228;2023-03-04T00:23:56;-0.40;99.90
12720;DHT22;6424;48.520;11.228;2023-03-04T00:26:37;-0.30;99.90
12720;DHT22;6424;48.520;11.228;2023-03-04T00:29:03;-0.30;99.90
12720;DHT22;6424;48.520;11.228;2023-03-04T00:31:44;-0.30;99.90
12720;DHT22;6424;48.520;11.228;2023-03-04T00:34:25;-0.30;99.90
12720;DHT22;6424;48.520;11.228;2023-03-04T00:37:05;-0.30;99.90
12720;DHT22;6424;48.520;11.228;2023-03-04T00:39:46;-0.20;99.90
12720;DHT22;6424;48.520;11.228;2023-03-04T00:42:27;-0.30;99.90
12720;DHT22;6424;48.520;11.228;2023-03-04T00:45:09;-0.30;99.90
12720;DHT22;6424;48.520;11.228;2023-03-04T00:47:49;-0.30;99.90
12720;DHT22;6424;48.520;11.228;2023-03-04T00:50:30;-0.30;99.90
12720;DHT22;6424;48.520;11.228;2023-03-04T00:53:11;-0.30;99.90
12720;DHT22;6424;48.520;11.228;2023-03-04T00:55:52;-0.30;99.90
12720;DHT22;6424;48.520;11.228;2023-03-04T00:58:18;-0.40;99.90
12720;DHT22;6424;48.520;11.228;2023-03-04T01:00:58;-0.40;99.90
12720;DHT22;6424;48.520;11.228;2023-03-04T01:03:39;-0.40;99.90
12720;DHT22;6424;48.520;11.228;2023-03-04T01:06:21;-0.40;99.90
12720;DHT22;6424;48.520;11.228;2023-03-04T01:09:02;-0.40;99.90
12720;DHT22;6424;48.520;11.228;2023-03-04T01:11:43;-0.50;99.90
12720;DHT22;6424;48.520;11.228;2023-03-04T01:14:24;-0.50;99.90
12720;DHT22;6424;48.520;11.228;2023-03-04T01:17:05;-0.50;99.90
12720;DHT22;6424;48.520;11.228;2023-03-04T01:19:46;-0.50;99.90
12720;DHT22;6424;48.520;11.228;2023-03-04T01:22:26;-0.50;99.90
12720;DHT22;6424;48.520;11.228;2023-03-04T01:25:08;-0.60;99.90
12720;DHT22;6424;48.520;11.228;2023-03-04T01:27:34;-0.50;99.90
12720;DHT22;6424;48.520;11.228;2023-03-04T01:30:00;-0.60;99.90
12720;DHT22;6424;48.520;11.228;2023-03-04T01:32:40;-0.50;99.90
12720;DHT22;6424;48.520;11.228;2023-03-04T01:35:21;-0.50;99.90
12720;DHT22;6424;48.520;11.228;2023-03-04T01:38:02;-0.50;99.90
12720;DHT22;6424;48.520;11.228;2023-03-04T01:40:43;-0.40;99.90
12720;DHT22;6424;48.520;11.228;2023-03-04T01:43:27;-0.40;99.90
12720;DHT22;6424;48.520;11.228;2023-03-04T01:46:09;-0.40;99.90
12720;DHT22;6424;48.520;11.228;2023-03-04T01:48:52;-0.40;99.90
12720;DHT22;6424;48.520;11.228;2023-03-04T01:51:33;-0.40;99.90
12720;DHT22;6424;48.520;11.228;2023-03-04T01:53:59;-0.40;99.90
12720;DHT22;6424;48.520;11.228;2023-03-04T01:56:39;-0.40;99.90
12720;DHT22;6424;48.520;11.228;2023-03-04T01:59:25;-0.40;99.90
12720;DHT22;6424;48.520;11.228;2023-03-04T02:02:06;-0.40;99.90
12720;DHT22;6424;48.520;11.228;2023-03-04T02:04:46;-0.40;99.90
12720;DHT22;6424;48.520;11.228;2023-03-04T02:07:27;-0.40;99.90
12720;DHT22;6424;48.520;11.228;2023-03-04T02:10:09;-0.40;99.90
12720;DHT22;6424;48.520;11.228;2023-03-04T02:12:51;-0.40;99.90
12720;DHT22;6424;48.520;11.228;2023-03-04T02:15:32;-0.40;99.90
12720;DHT22;6424;48.520;11.228;2023-03-04T02:18:19;-0.50;99.90
12720;DHT22;6424;48.520;11.228;2023-03-04T02:21:09;-0.40;99.90
12720;DHT22;6424;48.520;11.228;2023-03-04T02:24:10;-0.50;99.90
12720;DHT22;6424;48.520;11.228;2023-03-04T02:26:40;-0.50;99.90
12720;DHT22;6424;48.520;11.228;2023-03-04T02:29:23;-0.50;99.90
12720;DHT22;6424;48.520;11.228;2023-03-04T02:32:04;-0.50;99.90
12720;DHT22;6424;48.520;11.228;2023-03-04T02:34:47;-0.50;99.90
12720;DHT22;6424;48.520;11.228;2023-03-04T02:37:28;-0.50;99.90
12720;DHT22;6424;48.520;11.228;2023-03-04T02:40:23;-0.50;99.90
12720;DHT22;6424;48.520;11.228;2023-03-04T02:43:07;-0.50;99.90
12720;DHT22;6424;48.520;11.228;2023-03-04T02:45:49;-0.50;99.90
12720;DHT22;6424;48.520;11.228;2023-03-04T02:48:19;-0.50;99.90
12720;DHT22;6424;48.520;11.228;2023-03-04T02:51:01;-0.60;99.90
12720;DHT22;6424;48.520;11.228;2023-03-04T02:53:42;-0.60;99.90
12720;DHT22;6424;48.520;11.228;2023-03-04T02:56:22;-0.60;99.90
12720;DHT22;6424;48.520;11.228;2023-03-04T02:59:03;-0.60;99.90
12720;DHT22;6424;48.520;11.228;2023-03-04T03:01:29;-0.60;99.90
12720;DHT22;6424;48.520;11.228;2023-03-04T03:04:10;-0.60;99.90
12720;DHT22;6424;48.520;11.228;2023-03-04T03:06:36;-0.60;99.90
12720;DHT22;6424;48.520;11.228;2023-03-04T03:09:02;-0.70;99.90
12720;DHT22;6424;48.520;11.228;2023-03-04T03:11:43;-0.70;99.90
12720;DHT22;6424;48.520;11.228;2023-03-04T03:14:24;-0.60;99.90
12720;DHT22;6424;48.520;11.228;2023-03-04T03:17:05;-0.70;99.90
12720;DHT22;6424;48.520;11.228;2023-03-04T03:19:45;-0.70;99.90
12720;DHT22;6424;48.520;11.228;2023-03-04T03:22:26;-0.70;99.90
12720;DHT22;6424;48.520;11.228;2023-03-04T03:25:08;-0.70;99.90
12720;DHT22;6424;48.520;11.228;2023-03-04T03:27:49;-0.80;99.90
12720;DHT22;6424;48.520;11.228;2023-03-04T03:30:30;-0.80;99.90
12720;DHT22;6424;48.520;11.228;2023-03-04T03:32:55;-0.80;99.90
12720;DHT22;6424;48.520;11.228;2023-03-04T03:35:36;-0.90;99.90
12720;DHT22;6424;48.520;11.228;2023-03-04T03:38:02;-0.90;99.90
12720;DHT22;6424;48.520;11.228;2023-03-04T03:40:43;-0.90;99.90
12720;DHT22;6424;48.520;11.228;2023-03-04T03:43:23;-1.00;99.90
12720;DHT22;6424;48.520;11.228;2023-03-04T03:46:04;-1.00;99.90
12720;DHT22;6424;48.520;11.228;2023-03-04T03:48:45;-1.00;99.90
12720;DHT22;6424;48.520;11.228;2023-03-04T03:51:26;-1.00;99.90
12720;DHT22;6424;48.520;11.228;2023-03-04T03:54:07;-1.10;99.90
12720;DHT22;6424;48.520;11.228;2023-03-04T03:56:48;-1.10;99.90
12720;DHT22;6424;48.520;11.228;2023-03-04T03:59:28;-1.10;99.90
12720;DHT22;6424;48.520;11.228;2023-03-04T04:02:09;-1.10;99.90
12720;DHT22;6424;48.520;11.228;2023-03-04T04:04:50;-1.10;99.90
12720;DHT22;6424;48.520;11.228;2023-03-04T04:07:31;-1.10;99.90
12720;DHT22;6424;48.520;11.228;2023-03-04T04:10:12;-1.10;99.90
12720;DHT22;6424;48.520;11.228;2023-03-04T04:12:52;-1.00;99.90
12720;DHT22;6424;48.520;11.228;2023-03-04T04:15:33;-1.10;99.90
12720;DHT22;6424;48.520;11.228;2023-03-04T04:18:14;-1.00;99.90
12720;DHT22;6424;48.520;11.228;2023-03-04T04:20:55;-1.00;99.90
12720;DHT22;6424;48.520;11.228;2023-03-04T04:23:36;-1.10;99.90
12720;DHT22;6424;48.520;11.228;2023-03-04T04:26:16;-1.10;99.90
12720;DHT22;6424;48.520;11.228;2023-03-04T04:28:57;-1.10;99.90
12720;DHT22;6424;48.520;11.228;2023-03-04T04:31:38;-1.20;99.90
12720;DHT22;6424;48.520;11.228;2023-03-04T04:34:19;-1.20;99.90
12720;DHT22;6424;48.520;11.228;2023-03-04T04:37:00;-1.20;99.90
12720;DHT22;6424;48.520;11.228;2023-03-04T04:39:26;-1.20;99.90
12720;DHT22;6424;48.520;11.228;2023-03-04T04:42:09;-1.30;99.90
12720;DHT22;6424;48.520;11.228;2023-03-04T04:44:50;-1.30;99.90
12720;DHT22;6424;48.520;11.228;2023-03-04T04:47:32;-1.30;99.90
12720;DHT22;6424;48.520;11.228;2023-03-04T04:50:12;-1.40;99.90
12720;DHT22;6424;48.520;11.228;2023-03-04T04:52:53;-1.40;99.90
12720;DHT22;6424;48.520;11.228;2023-03-04T04:55:34;-1.40;99.90
12720;DHT22;6424;48.520;11.228;2023-03-04T04:58:00;-1.50;99.90
12720;DHT22;6424;48.520;11.228;2023-03-04T05:00:40;-1.50;99.90
12720;DHT22;6424;48.520;11.228;2023-03-04T05:03:21;-1.60;99.90
12720;DHT22;6424;48.520;11.228;2023-03-04T05:06:03;-1.60;99.90
12720;DHT22;6424;48.520;11.228;2023-03-04T05:08:44;-1.60;99.90
12720;DHT22;6424;48.520;11.228;2023-03-04T05:11:25;-1.60;99.90
12720;DHT22;6424;48.520;11.228;2023-03-04T05:14:06;-1.60;99.90
12720;DHT22;6424;48.520;11.228;2023-03-04T05:16:47;-1.70;99.90
12720;DHT22;6424;48.520;11.228;2023-03-04T05:19:28;-1.70;99.90
12720;DHT22;6424;48.520;11.228;2023-03-04T05:22:08;-1.70;99.90
12720;DHT22;6424;48.520;11.228;2023-03-04T05:24:49;-1.70;99.90
12720;DHT22;6424;48.520;11.228;2023-03-04T05:27:31;-1.80;99.90
12720;DHT22;6424;48.520;11.228;2023-03-04T05:30:12;-1.80;99.90
12720;DHT22;6424;48.520;11.228;2023-03-04T05:32:53;-1.90;99.90
12720;DHT22;6424;48.520;11.228;2023-03-04T05:35:38;-1.90;99.90
12720;DHT22;6424;48.520;11.228;2023-03-04T05:38:20;-1.90;99.90
12720;DHT22;6424;48.520;11.228;2023-03-04T05:41:04;-1.90;99.90
12720;DHT22;6424;48.520;11.228;2023-03-04T05:43:45;-1.90;99.90
12720;DHT22;6424;48.520;11.228;2023-03-04T05:46:26;-1.90;99.90
12720;DHT22;6424;48.520;11.228;2023-03-04T05:49:06;-1.90;99.90
12720;DHT22;6424;48.520;11.228;2023-03-04T05:51:47;-1.90;99.90
12720;DHT22;6424;48.520;11.228;2023-03-04T05:54:28;-1.90;99.90
12720;DHT22;6424;48.520;11.228;2023-03-04T05:56:54;-2.00;99.90
12720;DHT22;6424;48.520;11.228;2023-03-04T05:59:34;-1.90;99.90
12720;DHT22;6424;48.520;11.228;2023-03-04T06:02:15;-1.90;99.90
12720;DHT22;6424;48.520;11.228;2023-03-04T06:04:56;-1.90;99.90
12720;DHT22;6424;48.520;11.228;2023-03-04T06:07:37;-1.90;99.90
12720;DHT22;6424;48.520;11.228;2023-03-04T06:10:17;-1.90;99.90
12720;DHT22;6424;48.520;11.228;2023-03-04T06:12:58;-1.90;99.90
12720;DHT22;6424;48.520;11.228;2023-03-04T06:15:39;-1.80;99.90
12720;DHT22;6424;48.520;11.228;2023-03-04T06:18:20;-1.80;99.90
12720;DHT22;6424;48.520;11.228;2023-03-04T06:21:02;-1.70;99.90
12720;DHT22;6424;48.520;11.228;2023-03-04T06:23:29;-1.60;99.90
12720;DHT22;6424;48.520;11.228;2023-03-04T06:26:09;-1.50;99.90
12720;DHT22;6424;48.520;11.228;2023-03-04T06:28:54;-1.40;99.90
12720;DHT22;6424;48.520;11.228;2023-03-04T06:31:36;-1.30;99.90
12720;DHT22;6424;48.520;11.228;2023-03-04T06:34:17;-1.20;99.90
12720;DHT22;6424;48.520;11.228;2023-03-04T06:36:58;-1.10;99.90
12720;DHT22;6424;48.520;11.228;2023-03-04T06:39:39;-1.00;99.90
12720;DHT22;6424;48.520;11.228;2023-03-04T06:42:20;-0.80;99.90
12720;DHT22;6424;48.520;11.228;2023-03-04T06:44:48;-0.80;99.90
12720;DHT22;6424;48.520;11.228;2023-03-04T06:47:29;-0.70;99.90
12720;DHT22;6424;48.520;11.228;2023-03-04T06:50:10;-0.70;99.90
12720;DHT22;6424;48.520;11.228;2023-03-04T06:52:37;-0.60;99.90
12720;DHT22;6424;48.520;11.228;2023-03-04T06:55:18;-0.60;99.90
12720;DHT22;6424;48.520;11.228;2023-03-04T06:57:59;-0.40;99.90
12720;DHT22;6424;48.520;11.228;2023-03-04T07:00:40;-0.30;99.90
12720;DHT22;6424;48.520;11.228;2023-03-04T07:03:21;-0.20;99.90
12720;DHT22;6424;48.520;11.228;2023-03-04T07:06:02;0.00;99.90
12720;DHT22;6424;48.520;11.228;2023-03-04T07:08:43;0.10;99.90
12720;DHT22;6424;48.520;11.228;2023-03-04T07:11:24;0.30;99.90
12720;DHT22;6424;48.520;11.228;2023-03-04T07:14:05;0.50;99.90
12720;DHT22;6424;48.520;11.228;2023-03-04T07:16:46;0.80;99.90
12720;DHT22;6424;48.520;11.228;2023-03-04T07:19:12;1.00;99.90
12720;DHT22;6424;48.520;11.228;2023-03-04T07:21:52;1.20;99.90
12720;DHT22;6424;48.520;11.228;2023-03-04T07:24:33;1.40;99.90
12720;DHT22;6424;48.520;11.228;2023-03-04T07:27:14;1.40;99.90
12720;DHT22;6424;48.520;11.228;2023-03-04T07:29:55;1.60;99.90
12720;DHT22;6424;48.520;11.228;2023-03-04T07:32:35;1.70;99.90
12720;DHT22;6424;48.520;11.228;2023-03-04T07:35:16;1.80;99.90
12720;DHT22;6424;48.520;11.228;2023-03-04T07:37:57;1.90;99.90
12720;DHT22;6424;48.520;11.228;2023-03-04T07:40:38;2.00;99.90
12720;DHT22;6424;48.520;11.228;2023-03-04T07:43:19;2.10;99.90
12720;DHT22;6424;48.520;11.228;2023-03-04T07:46:00;2.10;99.90
12720;DHT22;6424;48.520;11.228;2023-03-04T07:48:27;2.30;99.90
12720;DHT22;6424;48.520;11.228;2023-03-04T07:51:13;2.50;99.90
12720;DHT22;6424;48.520;11.228;2023-03-04T07:53:59;2.70;99.90
12720;DHT22;6424;48.520;11.228;2023-03-04T07:56:40;2.80;99.90
12720;DHT22;6424;48.520;11.228;2023-03-04T07:59:21;2.90;99.90
12720;DHT22;6424;48.520;11.228;2023-03-04T08:02:02;3.00;99.90
12720;DHT22;6424;48.520;11.228;2023-03-04T08:04:28;3.30;99.90
12720;DHT22;6424;48.520;11.228;2023-03-04T08:06:54;3.50;99.90
12720;DHT22;6424;48.520;11.228;2023-03-04T08:09:34;3.70;99.90
12720;DHT22;6424;48.520;11.228;2023-03-04T08:12:15;3.80;99.90
12720;DHT22;6424;48.520;11.228;2023-03-04T08:14:56;3.90;99.90
12720;DHT22;6424;48.520;11.228;2023-03-04T08:17:37;4.10;99.90
12720;DHT22;6424;48.520;11.228;2023-03-04T08:20:18;4.20;99.90
12720;DHT22;6424;48.520;11.228;2023-03-04T08:22:58;4.40;99.90
12720;DHT22;6424;48.520;11.228;2023-03-04T08:25:40;4.40;99.90
12720;DHT22;6424;48.520;11.228;2023-03-04T08:28:21;4.30;99.90
12720;DHT22;6424;48.520;11.228;2023-03-04T08:31:02;4.30;99.90
12720;DHT22;6424;48.520;11.228;2023-03-04T08:33:43;4.10;99.90
12720;DHT22;6424;48.520;11.228;2023-03-04T08:36:24;4.00;99.90
12720;DHT22;6424;48.520;11.228;2023-03-04T08:39:05;4.10;99.90
12720;DHT22;6424;48.520;11.228;2023-03-04T08:41:47;4.30;99.90
12720;DHT22;6424;48.520;11.228;2023-03-04T08:44:28;4.50;99.90
12720;DHT22;6424;48.520;11.228;2023-03-04T08:47:08;4.70;99.90
12720;DHT22;6424;48.520;11.228;2023-03-04T08:49:35;4.70;99.90
12720;DHT22;6424;48.520;11.228;2023-03-04T08:52:15;4.50;99.90
12720;DHT22;6424;48.520;11.228;2023-03-04T08:54:56;4.30;99.90
12720;DHT22;6424;48.520;11.228;2023-03-04T08:57:37;4.10;99.90
12720;DHT22;6424;48.520;11.228;2023-03-04T09:00:18;4.00;99.90
12720;DHT22;6424;48.520;11.228;2023-03-04T09:03:00;4.10;99.90
12720;DHT22;6424;48.520;11.228;2023-03-04T09:05:43;4.30;99.90
12720;DHT22;6424;48.520;11.228;2023-03-04T09:08:24;4.30;99.90
12720;DHT22;6424;48.520;11.228;2023-03-04T09:11:05;4.20;99.90
12720;DHT22;6424;48.520;11.228;2023-03-04T09:13:46;4.00;99.90
12720;DHT22;6424;48.520;11.228;2023-03-04T09:16:27;3.80;99.90
12720;DHT22;6424;48.520;11.228;2023-03-04T09:19:08;3.70;99.90
12720;DHT22;6424;48.520;11.228;2023-03-04T09:21:33;3.60;99.90
12720;DHT22;6424;48.520;11.228;2023-03-04T09:24:14;3.50;99.90
12720;DHT22;6424;48.520;11.228;2023-03-04T09:26:55;3.40;99.90
12720;DHT22;6424;48.520;11.228;2023-03-04T09:29:36;3.40;99.90
12720;DHT22;6424;48.520;11.228;2023-03-04T09:32:17;3.50;99.90
12720;DHT22;6424;48.520;11.228;2023-03-04T09:34:58;3.40;99.90
12720;DHT22;6424;48.520;11.228;2023-03-04T09:37:39;3.50;99.90
12720;DHT22;6424;48.520;11.228;2023-03-04T09:40:22;3.60;99.90
12720;DHT22;6424;48.520;11.228;2023-03-04T09:43:06;3.70;99.90
12720;DHT22;6424;48.520;11.228;2023-03-04T09:45:56;3.80;99.90
12720;DHT22;6424;48.520;11.228;2023-03-04T09:48:51;3.80;99.90
12720;DHT22;6424;48.520;11.228;2023-03-04T09:54:52;3.60;99.90
12720;DHT22;6424;48.520;11.228;2023-03-04T10:01:00;3.00;99.90
12720;DHT22;6424;48.520;11.228;2023-03-04T10:03:49;2.90;99.90
12720;DHT22;6424;48.520;11.228;2023-03-04T10:06:31;2.90;99.90
12720;DHT22;6424;48.520;11.228;2023-03-04T10:09:16;3.00;99.90
12720;DHT22;6424;48.520;11.228;2023-03-04T10:12:06;3.00;99.90
12720;DHT22;6424;48.520;11.228;2023-03-04T10:14:53;2.80;99.90
12720;DHT22;6424;48.520;11.228;2023-03-04T10:17:39;2.60;99.90
12720;DHT22;6424;48.520;11.228;2023-03-04T10:20:31;2.40;99.90
12720;DHT22;6424;48.520;11.228;2023-03-04T10:23:20;2.40;99.90
12720;DHT22;6424;48.520;11.228;2023-03-04T10:25:48;2.40;99.90
12720;DHT22;6424;48.520;11.228;2023-03-04T10:28:33;2.30;99.90
12720;DHT22;6424;48.520;11.228;2023-03-04T10:34:05;2.10;99.90
12720;DHT22;6424;48.520;11.228;2023-03-04T10:36:49;2.00;99.90
12720;DHT22;6424;48.520;11.228;2023-03-04T10:39:23;1.90;99.90
12720;DHT22;6424;48.520;11.228;2023-03-04T10:42:11;1.90;99.90
12720;DHT22;6424;48.520;11.228;2023-03-04T10:44:58;2.00;99.90
12720;DHT22;6424;48.520;11.228;2023-03-04T10:47:27;1.60;99.90
12720;DHT22;6424;48.520;11.228;2023-03-04T10:50:24;1.50;99.90
12720;DHT22;6424;48.520;11.228;2023-03-04T10:53:21;1.20;99.90
12720;DHT22;6424;48.520;11.228;2023-03-04T10:56:22;1.10;99.90
12720;DHT22;6424;48.520;11.228;2023-03-04T10:59:28;1.10;99.90
12720;DHT22;6424;48.520;11.228;2023-03-04T11:02:27;1.30;99.90
12720;DHT22;6424;48.520;11.228;2023-03-04T11:05:22;1.60;99.90
12720;DHT22;6424;48.520;11.228;2023-03-04T11:08:03;1.80;99.90
12720;DHT22;6424;48.520;11.228;2023-03-04T11:10:44;1.80;99.90
12720;DHT22;6424;48.520;11.228;2023-03-04T11:13:26;2.00;99.90
12720;DHT22;6424;48.520;11.228;2023-03-04T11:16:25;1.90;99.90
12720;DHT22;6424;48.520;11.228;2023-03-04T11:19:13;1.80;99.90
12720;DHT22;6424;48.520;11.228;2023-03-04T11:21:56;1.50;99.90
12720;DHT22;6424;48.520;11.228;2023-03-04T11:24:38;1.60;99.90
12720;DHT22;6424;48.520;11.228;2023-03-04T11:27:43;1.60;99.90
12720;DHT22;6424;48.520;11.228;2023-03-04T11:30:35;1.70;99.90
12720;DHT22;6424;48.520;11.228;2023-03-04T11:33:43;1.60;99.90
12720;DHT22;6424;48.520;11.228;2023-03-04T11:36:41;1.60;99.90
12720;DHT22;6424;48.520;11.228;2023-03-04T11:39:36;1.60;99.90
12720;DHT22;6424;48.520;11.228;2023-03-04T11:45:24;1.60;99.90
12720;DHT22;6424;48.520;11.228;2023-03-04T11:51:28;1.70;99.90
12720;DHT22;6424;48.520;11.228;2023-03-04T11:57:00;1.70;99.90
12720;DHT22;6424;48.520;11.228;2023-03-04T11:59:56;1.60;99.90
12720;DHT22;6424;48.520;11.228;2023-03-04T12:02:34;1.70;99.90
12720;DHT22;6424;48.520;11.228;2023-03-04T12:05:10;1.70;99.90
12720;DHT22;6424;48.520;11.228;2023-03-04T12:10:54;1.60;99.90
12720;DHT22;6424;48.520;11.228;2023-03-04T12:20:36;1.80;99.90
12720;DHT22;6424;48.520;11.228;2023-03-04T12:26:35;1.70;99.90
12720;DHT22;6424;48.520;11.228;2023-03-04T12:35:23;1.80;99.90
12720;DHT22;6424;48.520;11.228;2023-03-04T12:44:19;1.90;99.90
12720;DHT22;6424;48.520;11.228;2023-03-04T12:47:35;1.70;99.90
12720;DHT22;6424;48.520;11.228;2023-03-04T12:53:38;1.70;99.90
12720;DHT22;6424;48.520;11.228;2023-03-04T12:59:05;1.50;99.90
12720;DHT22;6424;48.520;11.228;2023-03-04T13:20:34;2.00;99.90
12720;DHT22;6424;48.520;11.228;2023-03-04T13:23:22;2.00;99.90
12720;DHT22;6424;48.520;11.228;2023-03-04T13:26:27;2.00;99.90
12720;DHT22;6424;48.520;11.228;2023-03-04T13:32:11;1.90;99.90
12720;DHT22;6424;48.520;11.228;2023-03-04T13:34:52;1.70;99.90
12720;DHT22;6424;48.520;11.228;2023-03-04T13:37:35;1.80;99.90
12720;DHT22;6424;48.520;11.228;2023-03-04T13:43:26;1.90;99.90
12720;DHT22;6424;48.520;11.228;2023-03-04T13:49:02;2.00;99.90
12720;DHT22;6424;48.520;11.228;2023-03-04T13:51:40;2.00;99.90
12720;DHT22;6424;48.520;11.228;2023-03-04T13:54:30;2.00;99.90
12720;DHT22;6424;48.520;11.228;2023-03-04T13:59:56;2.00;99.90
12720;DHT22;6424;48.520;11.228;2023-03-04T14:02:37;1.90;99.90
12720;DHT22;6424;48.520;11.228;2023-03-04T14:05:18;1.90;99.90
12720;DHT22;6424;48.520;11.228;2023-03-04T14:08:16;2.00;99.90
12720;DHT22;6424;48.520;11.228;2023-03-04T14:10:57;2.10;99.90
12720;DHT22;6424;48.520;11.228;2023-03-04T14:13:38;2.20;99.90
12720;DHT22;6424;48.520;11.228;2023-03-04T14:16:20;2.10;99.90
12720;DHT22;6424;48.520;11.228;2023-03-04T14:19:04;2.00;99.90
12720;DHT22;6424;48.520;11.228;2023-03-04T14:21:46;2.00;99.90
12720;DHT22;6424;48.520;11.228;2023-03-04T14:24:27;2.00;99.90
12720;DHT22;6424;48.520;11.228;2023-03-04T14:27:12;2.20;99.90
12720;DHT22;6424;48.520;11.228;2023-03-04T14:29:58;2.20;99.90
12720;DHT22;6424;48.520;11.228;2023-03-04T14:32:41;2.10;99.90
12720;DHT22;6424;48.520;11.228;2023-03-04T14:35:27;2.10;99.90
12720;DHT22;6424;48.520;11.228;2023-03-04T14:38:27;2.00;99.90
12720;DHT22;6424;48.520;11.228;2023-03-04T14:41:23;2.00;99.90
12720;DHT22;6424;48.520;11.228;2023-03-04T14:44:33;2.10;99.90
12720;DHT22;6424;48.520;11.228;2023-03-04T14:47:32;1.90;99.90
12720;DHT22;6424;48.520;11.228;2023-03-04T14:50:17;1.70;99.90
12720;DHT22;6424;48.520;11.228;2023-03-04T14:58:52;1.70;99.90
12720;DHT22;6424;48.520;11.228;2023-03-04T15:01:34;1.60;99.90
12720;DHT22;6424;48.520;11.228;2023-03-04T15:04:18;1.60;99.90
12720;DHT22;6424;48.520;11.228;2023-03-04T15:06:59;1.50;99.90
12720;DHT22;6424;48.520;11.228;2023-03-04T15:09:41;1.50;99.90
12720;DHT22;6424;48.520;11.228;2023-03-04T15:12:26;1.50;99.90
12720;DHT22;6424;48.520;11.228;2023-03-04T15:15:31;1.60;99.90
12720;DHT22;6424;48.520;11.228;2023-03-04T15:18:20;1.60;99.90
12720;DHT22;6424;48.520;11.228;2023-03-04T15:21:05;1.30;99.90
12720;DHT22;6424;48.520;11.228;2023-03-04T15:23:46;1.20;99.90
12720;DHT22;6424;48.520;11.228;2023-03-04T15:26:27;1.10;99.90
12720;DHT22;6424;48.520;11.228;2023-03-04T15:29:19;1.20;99.90
12720;DHT22;6424;48.520;11.228;2023-03-04T15:32:01;1.20;99.90
12720;DHT22;6424;48.520;11.228;2023-03-04T15:34:27;1.20;99.90
12720;DHT22;6424;48.520;11.228;2023-03-04T15:37:12;1.20;99.90
12720;DHT22;6424;48.520;11.228;2023-03-04T15:39:57;1.10;99.90
12720;DHT22;6424;48.520;11.228;2023-03-04T15:42:38;1.10;99.90
12720;DHT22;6424;48.520;11.228;2023-03-04T15:45:22;1.20;99.90
12720;DHT22;6424;48.520;11.228;2023-03-04T15:48:04;1.00;99.90
12720;DHT22;6424;48.520;11.228;2023-03-04T15:50:54;0.90;99.90
12720;DHT22;6424;48.520;11.228;2023-03-04T15:53:55;0.90;99.90
12720;DHT22;6424;48.520;11.228;2023-03-04T15:56:36;0.70;99.90
12720;DHT22;6424;48.520;11.228;2023-03-04T15:59:18;0.70;99.90
12720;DHT22;6424;48.520;11.228;2023-03-04T16:01:59;0.70;99.90
12720;DHT22;6424;48.520;11.228;2023-03-04T16:04:39;0.70;99.90
12720;DHT22;6424;48.520;11.228;2023-03-04T16:07:23;0.70;99.90
12720;DHT22;6424;48.520;11.228;2023-03-04T16:10:10;0.70;99.90
12720;DHT22;6424;48.520;11.228;2023-03-04T16:12:55;0.70;99.90
12720;DHT22;6424;48.520;11.228;2023-03-04T16:15:36;0.70;99.90
12720;DHT22;6424;48.520;11.228;2023-03-04T16:18:16;0.60;99.90
12720;DHT22;6424;48.520;11.228;2023-03-04T16:20:58;0.60;99.90
12720;DHT22;6424;48.520;11.228;2023-03-04T16:23:44;0.60;99.90
12720;DHT22;6424;48.520;11.228;2023-03-04T16:26:27;0.70;99.90
12720;DHT22;6424;48.520;11.228;2023-03-04T16:29:09;0.70;99.90
12720;DHT22;6424;48.520;11.228;2023-03-04T16:31:53;0.70;99.90
12720;DHT22;6424;48.520;11.228;2023-03-04T16:34:34;0.70;99.90
12720;DHT22;6424;48.520;11.228;2023-03-04T16:37:17;0.70;99.90
12720;DHT22;6424;48.520;11.228;2023-03-04T16:39:59;0.60;99.90
12720;DHT22;6424;48.520;11.228;2023-03-04T16:42:40;0.70;99.90
12720;DHT22;6424;48.520;11.228;2023-03-04T16:45:26;0.70;99.90
12720;DHT22;6424;48.520;11.228;2023-03-04T16:48:09;0.70;99.90
12720;DHT22;6424;48.520;11.228;2023-03-04T16:50:50;0.50;99.90
12720;DHT22;6424;48.520;11.228;2023-03-04T16:53:34;0.50;99.90
12720;DHT22;6424;48.520;11.228;2023-03-04T16:56:17;0.50;99.90
12720;DHT22;6424;48.520;11.228;2023-03-04T16:58:58;0.40;99.90
12720;DHT22;6424;48.520;11.228;2023-03-04T17:01:39;0.30;99.90
12720;DHT22;6424;48.520;11.228;2023-03-04T17:04:21;0.20;99.90
12720;DHT22;6424;48.520;11.228;2023-03-04T17:07:02;0.20;99.90
12720;DHT22;6424;48.520;11.228;2023-03-04T17:09:43;0.20;99.90
12720;DHT22;6424;48.520;11.228;2023-03-04T17:12:24;0.10;99.90
12720;DHT22;6424;48.520;11.228;2023-03-04T17:15:05;0.10;99.90
12720;DHT22;6424;48.520;11.228;2023-03-04T17:17:46;0.10;99.90
12720;DHT22;6424;48.520;11.228;2023-03-04T17:20:28;0.10;99.90
12720;DHT22;6424;48.520;11.228;2023-03-04T17:23:08;0.20;99.90
12720;DHT22;6424;48.520;11.228;2023-03-04T17:25:54;0.30;99.90
12720;DHT22;6424;48.520;11.228;2023-03-04T17:28:36;0.30;99.90
12720;DHT22;6424;48.520;11.228;2023-03-04T17:31:19;0.40;99.90
12720;DHT22;6424;48.520;11.228;2023-03-04T17:34:00;0.30;99.90
12720;DHT22;6424;48.520;11.228;2023-03-04T17:36:40;0.30;99.90
12720;DHT22;6424;48.520;11.228;2023-03-04T17:39:21;0.40;99.90
12720;DHT22;6424;48.520;11.228;2023-03-04T17:42:02;0.40;99.90
12720;DHT22;6424;48.520;11.228;2023-03-04T17:44:43;0.40;99.90
12720;DHT22;6424;48.520;11.228;2023-03-04T17:47:25;0.40;99.90
12720;DHT22;6424;48.520;11.228;2023-03-04T17:49:51;0.40;99.90
12720;DHT22;6424;48.520;11.228;2023-03-04T17:52:32;0.50;99.90
12720;DHT22;6424;48.520;11.228;2023-03-04T17:55:13;0.50;99.90
12720;DHT22;6424;48.520;11.228;2023-03-04T17:57:38;0.50;99.90
12720;DHT22;6424;48.520;11.228;2023-03-04T18:00:19;0.50;99.90
12720;DHT22;6424;48.520;11.228;2023-03-04T18:02:45;0.50;99.90
12720;DHT22;6424;48.520;11.228;2023-03-04T18:05:26;0.50;99.90
12720;DHT22;6424;48.520;11.228;2023-03-04T18:08:07;0.40;99.90
12720;DHT22;6424;48.520;11.228;2023-03-04T18:10:48;0.50;99.90
12720;DHT22;6424;48.520;11.228;2023-03-04T18:13:29;0.50;99.90
12720;DHT22;6424;48.520;11.228;2023-03-04T18:16:11;0.40;99.90
12720;DHT22;6424;48.520;11.228;2023-03-04T18:18:39;0.50;99.90
12720;DHT22;6424;48.520;11.228;2023-03-04T18:21:05;0.50;99.90
12720;DHT22;6424;48.520;11.228;2023-03-04T18:23:46;0.50;99.90
12720;DHT22;6424;48.520;11.228;2023-03-04T18:26:27;0.50;99.90
12720;DHT22;6424;48.520;11.228;2023-03-04T18:29:08;0.50;99.90
12720;DHT22;6424;48.520;11.228;2023-03-04T18:31:48;0.40;99.90
12720;DHT22;6424;48.520;11.228;2023-03-04T18:34:29;0.40;99.90
12720;DHT22;6424;48.520;11.228;2023-03-04T18:37:10;0.50;99.90